Time;durP1;ratioP1;P1;durP2;ratioP2;P2;SDS_P1;SDS_P2;PMS_P1;PMS_P2;Temp;Humidity;BMP_temperature;BMP_pressure;BME280_temperature;BME280_humidity;BME280_pressure;Samples;Min_cycle;Max_cycle;Signal;HPM_P1;HPM_P2
2021/10/21 00:02:07;;;;;;;3.25;2.42;;;;;;;17.12;71.25;95654.31;4977804;28;20037;-82
2021/10/21 00:04:33;;;;;;;4.95;2.53;;;;;;;17.14;70.99;95636.38;4973942;28;20395;-81
2021/10/21 00:06:58;;;;;;;3.65;2.45;;;;;;;17.29;70.45;95625.25;4973154;28;20031;-82
2021/10/21 00:09:24;;;;;;;4.15;2.45;;;;;;;17.30;70.47;95637.28;4986394;28;20462;-82
2021/10/21 00:11:49;;;;;;;3.00;2.28;;;;;;;17.23;70.76;95624.66;4954747;28;20026;-81
2021/10/21 00:14:15;;;;;;;3.65;2.80;;;;;;;17.31;70.38;95596.75;4954787;28;20077;-81
2021/10/21 00:16:40;;;;;;;3.85;2.67;;;;;;;17.14;70.93;95596.94;4988001;28;20038;-79
2021/10/21 00:19:05;;;;;;;3.03;2.42;;;;;;;17.28;70.75;95621.06;4970523;28;20463;-82
2021/10/21 00:21:31;;;;;;;3.70;2.65;;;;;;;17.36;70.59;95624.72;4954954;28;20109;-81
2021/10/21 00:23:57;;;;;;;3.30;2.80;;;;;;;17.13;71.25;95590.88;4971068;28;20045;-81
2021/10/21 00:26:22;;;;;;;3.80;2.80;;;;;;;16.87;72.28;95580.63;4990023;28;20123;-80
2021/10/21 00:28:48;;;;;;;4.50;3.00;;;;;;;17.10;71.76;95591.56;4971092;28;20066;-82
2021/10/21 00:31:13;;;;;;;3.42;3.10;;;;;;;17.13;71.75;95576.97;4991137;28;20403;-81
2021/10/21 00:33:39;;;;;;;3.83;3.08;;;;;;;16.94;72.36;95538.03;4974960;28;20084;-79
2021/10/21 00:36:04;;;;;;;3.65;3.35;;;;;;;17.00;72.46;95511.22;4974268;28;20041;-78
2021/10/21 00:38:30;;;;;;;3.72;3.20;;;;;;;17.03;72.11;95478.22;4993329;28;20025;-80
2021/10/21 00:40:55;;;;;;;4.13;2.97;;;;;;;16.95;72.30;95479.88;5012592;28;20033;-79
2021/10/21 00:43:20;;;;;;;3.20;2.83;;;;;;;16.90;72.75;95476.69;4978404;28;20408;-79
2021/10/21 00:45:46;;;;;;;3.70;2.75;;;;;;;17.03;72.46;95494.78;5010486;28;20034;-81
2021/10/21 00:48:11;;;;;;;4.47;3.25;;;;;;;17.11;72.16;95479.25;4978082;28;20030;-79
2021/10/21 00:50:37;;;;;;;3.70;3.03;;;;;;;17.23;71.64;95489.75;4994582;28;20045;-79
2021/10/21 00:53:03;;;;;;;4.30;3.30;;;;;;;17.30;71.15;95474.19;4994464;28;20044;-80
2021/10/21 00:55:29;;;;;;;4.05;3.42;;;;;;;17.08;72.03;95477.25;4994457;28;20049;-81
2021/10/21 00:57:58;;;;;;;3.75;2.85;;;;;;;16.64;73.27;95477.72;4977546;28;20065;-80
2021/10/21 01:00:24;;;;;;;4.47;3.63;;;;;;;17.02;72.31;95443.28;4977869;28;20113;-80
2021/10/21 01:02:49;;;;;;;3.40;2.80;;;;;;;17.28;71.43;95479.03;5011995;28;20118;-81
2021/10/21 01:05:15;;;;;;;3.85;3.00;;;;;;;17.42;71.34;95471.56;4994212;28;20236;-80
2021/10/21 01:07:40;;;;;;;3.85;2.83;;;;;;;17.40;71.16;95462.47;4978082;28;20040;-79
2021/10/21 01:10:07;;;;;;;3.53;3.08;;;;;;;17.27;71.71;95445.91;4994148;28;20033;-80
2021/10/21 01:12:33;;;;;;;3.63;3.25;;;;;;;17.43;71.23;95438.13;4993243;28;20106;-80
2021/10/21 01:15:18;;;;;;;3.80;3.00;;;;;;;17.31;71.42;95457.31;4978078;28;20642;-81
2021/10/21 01:17:43;;;;;;;6.55;3.60;;;;;;;17.47;70.53;95420.56;5010095;28;20030;-79
2021/10/21 01:20:11;;;;;;;3.95;3.20;;;;;;;17.23;71.61;95405.59;5009366;28;20514;-80
2021/10/21 01:22:38;;;;;;;2.97;2.53;;;;;;;17.42;71.00;95441.84;4994086;28;20511;-82
2021/10/21 01:25:04;;;;;;;3.38;3.03;;;;;;;17.46;71.00;95463.00;4994021;28;20045;-81
2021/10/21 01:27:29;;;;;;;3.35;3.00;;;;;;;17.27;72.01;95424.88;4961730;28;20494;-80
2021/10/21 01:29:55;;;;;;;4.25;2.53;;;;;;;17.19;71.96;95423.91;4993456;28;20406;-81
2021/10/21 01:32:24;;;;;;;4.30;2.78;;;;;;;17.06;72.20;95421.59;4993614;28;20042;-80
2021/10/21 01:34:50;;;;;;;5.45;2.47;;;;;;;17.29;71.61;95419.28;4977605;28;20041;-79
2021/10/21 01:37:15;;;;;;;3.72;2.05;;;;;;;17.36;71.54;95409.00;4993771;28;20030;-81
2021/10/21 01:39:41;;;;;;;2.85;2.20;;;;;;;17.32;71.57;95408.09;4993419;28;20301;-82
2021/10/21 01:42:07;;;;;;;3.25;2.42;;;;;;;17.35;71.45;95516.06;4961189;28;20040;-83
2021/10/21 01:44:32;;;;;;;1.95;1.10;;;;;;;17.13;69.80;95488.31;5009893;28;20418;-81
2021/10/21 01:46:58;;;;;;;1.67;0.90;;;;;;;16.78;71.06;95477.41;4977772;28;20451;-81
2021/10/21 01:49:24;;;;;;;2.00;0.70;;;;;;;17.00;69.95;95478.91;4960468;28;20030;-81
2021/10/21 01:51:50;;;;;;;0.98;0.65;;;;;;;16.82;70.73;95499.31;4993832;28;20026;-81
2021/10/21 01:54:16;;;;;;;2.25;1.00;;;;;;;16.69;71.02;95489.84;4993575;28;20026;-81
2021/10/21 01:56:42;;;;;;;1.40;0.60;;;;;;;16.35;72.20;95471.50;4977692;28;20528;-80
2021/10/21 01:59:07;;;;;;;1.20;0.93;;;;;;;16.35;72.39;95462.81;4976293;28;20209;-81
2021/10/21 02:01:33;;;;;;;5.32;0.90;;;;;;;16.14;72.78;95468.88;5009026;28;20087;-83
2021/10/21 02:03:59;;;;;;;1.58;1.00;;;;;;;15.99;73.13;95511.44;4993342;28;20096;-82
2021/10/21 02:06:24;;;;;;;2.17;1.08;;;;;;;15.89;73.81;95505.50;4992769;28;20101;-82
2021/10/21 02:08:50;;;;;;;1.25;1.02;;;;;;;16.24;72.18;95502.63;5008747;28;20040;-83
2021/10/21 02:11:16;;;;;;;1.58;0.90;;;;;;;16.26;72.13;95515.44;4992908;28;20436;-82
2021/10/21 02:13:41;;;;;;;1.17;0.82;;;;;;;16.26;71.98;95528.56;5009108;28;20105;-83
2021/10/21 02:16:06;;;;;;;2.75;1.10;;;;;;;16.14;72.16;95526.63;4992453;28;20026;-83
2021/10/21 02:18:32;;;;;;;3.00;0.90;;;;;;;16.12;71.67;95526.19;4975898;28;20033;-81
2021/10/21 02:20:57;;;;;;;2.10;0.60;;;;;;;16.22;71.71;95520.56;4992595;28;20042;-80
2021/10/21 02:23:23;;;;;;;1.40;0.93;;;;;;;16.39;71.15;95517.03;5009014;28;20484;-82
2021/10/21 02:25:48;;;;;;;3.60;1.35;;;;;;;16.54;70.64;95522.78;4992703;28;20036;-81
2021/10/21 02:28:14;;;;;;;1.27;0.70;;;;;;;16.22;71.48;95504.03;4990331;28;20068;-82
2021/10/21 02:30:39;;;;;;;2.08;0.80;;;;;;;16.33;71.38;95507.03;4992413;28;20085;-83
2021/10/21 02:33:04;;;;;;;2.03;0.60;;;;;;;16.16;70.68;95498.22;4976675;28;20133;-83
2021/10/21 02:35:30;;;;;;;2.25;0.60;;;;;;;16.03;70.99;95510.50;4960158;28;20026;-83
2021/10/21 02:37:55;;;;;;;4.68;0.70;;;;;;;15.69;72.09;95509.59;4959858;28;20495;-83
2021/10/21 02:40:21;;;;;;;2.30;0.60;;;;;;;15.91;71.50;95502.56;4959867;28;20034;-83
2021/10/21 02:42:46;;;;;;;2.55;0.88;;;;;;;16.07;70.86;95508.78;4992244;28;20381;-82
2021/10/21 02:45:12;;;;;;;2.35;0.60;;;;;;;15.99;71.17;95496.50;4991856;28;20037;-82
2021/10/21 02:47:37;;;;;;;1.45;0.60;;;;;;;16.00;70.63;95492.75;4959639;28;20033;-82
2021/10/21 02:50:03;;;;;;;1.52;0.68;;;;;;;15.81;71.19;95493.22;4959491;28;20026;-83
2021/10/21 02:52:28;;;;;;;1.75;0.70;;;;;;;15.68;71.52;95508.09;4992053;28;20092;-82
2021/10/21 02:54:53;;;;;;;2.17;0.60;;;;;;;15.58;71.71;95511.06;4960060;28;20025;-82
2021/10/21 02:57:19;;;;;;;2.20;0.55;;;;;;;15.86;71.06;95495.63;4976006;28;20119;-83
2021/10/21 02:59:44;;;;;;;2.53;0.60;;;;;;;15.76;70.82;95493.41;4959075;28;20511;-82
2021/10/21 03:02:09;;;;;;;3.65;0.80;;;;;;;15.57;71.35;95509.53;4980057;28;20038;-82
2021/10/21 03:04:35;;;;;;;2.83;0.50;;;;;;;15.23;71.28;95510.47;4972338;28;20045;-82
2021/10/21 03:07:00;;;;;;;1.80;0.52;;;;;;;14.59;70.78;95523.25;4956918;28;20032;-82
2021/10/21 03:09:25;;;;;;;3.97;0.90;;;;;;;14.40;70.18;95528.81;4955705;28;20809;-83
2021/10/21 03:11:51;;;;;;;1.85;0.52;;;;;;;14.38;70.21;95510.00;4940153;28;20504;-83
2021/10/21 03:14:16;;;;;;;3.63;0.60;;;;;;;14.47;70.07;95541.44;4953039;28;20060;-82
2021/10/21 03:16:41;;;;;;;4.63;0.60;;;;;;;14.08;71.85;95542.34;4975146;28;20172;-82
2021/10/21 03:19:08;;;;;;;6.65;1.02;;;;;;;14.08;70.09;95547.59;4991211;28;20033;-82
2021/10/21 03:21:34;;;;;;;2.20;0.90;;;;;;;14.21;68.78;95554.53;4975339;28;20048;-81
2021/10/21 03:24:00;;;;;;;5.53;0.90;;;;;;;14.27;69.53;95547.28;4975704;28;20132;-81
2021/10/21 03:26:26;;;;;;;6.00;1.00;;;;;;;14.34;69.26;95561.47;4991260;28;20122;-83
2021/10/21 03:28:52;;;;;;;6.07;0.98;;;;;;;14.16;69.85;95555.44;4991232;28;20471;-82
2021/10/21 03:31:18;;;;;;;3.90;0.60;;;;;;;14.14;69.16;95562.06;4990286;28;20030;-81
2021/10/21 03:33:43;;;;;;;4.25;0.82;;;;;;;14.05;69.44;95557.59;4991487;28;20033;-82
2021/10/21 03:36:09;;;;;;;8.70;1.02;;;;;;;13.68;69.54;95549.19;4991078;28;20030;-80
2021/10/21 03:38:34;;;;;;;5.35;1.10;;;;;;;13.59;70.39;95550.22;4991101;28;20057;-81
2021/10/21 03:41:04;;;;;;;4.32;0.80;;;;;;;13.59;69.25;95551.03;4991852;28;20036;-81
2021/10/21 03:43:29;;;;;;;5.78;0.80;;;;;;;14.21;68.53;95565.00;4991227;28;20448;-83
2021/10/21 03:45:55;;;;;;;5.90;1.33;;;;;;;13.84;69.51;95562.63;4991071;28;20068;-82
2021/10/21 03:48:21;;;;;;;3.90;0.90;;;;;;;13.88;69.25;95569.84;5006804;28;20038;-81
2021/10/21 03:50:46;;;;;;;5.10;1.00;;;;;;;13.87;69.63;95569.09;5008659;28;20558;-83
2021/10/21 03:53:13;;;;;;;2.13;0.50;;;;;;;13.77;69.35;95579.84;4990980;28;20033;-81
2021/10/21 03:55:39;;;;;;;5.18;1.15;;;;;;;13.53;69.27;95552.22;5007687;28;20092;-83
2021/10/21 03:58:05;;;;;;;5.07;1.02;;;;;;;13.88;68.16;95560.19;5008265;28;20466;-82
2021/10/21 04:00:30;;;;;;;6.50;1.13;;;;;;;13.98;66.66;95561.72;4990654;28;20091;-83
2021/10/21 04:02:56;;;;;;;3.63;0.77;;;;;;;13.68;66.95;95557.03;4973469;28;20034;-83
2021/10/21 04:05:22;;;;;;;6.93;1.05;;;;;;;13.93;66.92;95560.03;4955025;28;20439;-83
2021/10/21 04:07:48;;;;;;;4.47;1.30;;;;;;;13.97;66.33;95568.81;4971223;28;20113;-83
2021/10/21 04:10:14;;;;;;;6.07;0.85;;;;;;;13.84;65.48;95567.09;4955087;28;20026;-82
2021/10/21 04:12:40;;;;;;;4.95;0.80;;;;;;;13.80;66.63;95548.59;4939509;28;20029;-81
2021/10/21 04:15:06;;;;;;;4.63;1.15;;;;;;;14.12;65.71;95577.28;4988767;28;20129;-82
2021/10/21 04:17:31;;;;;;;6.90;1.10;;;;;;;14.12;65.41;95582.53;4970578;28;20034;-82
2021/10/21 04:19:57;;;;;;;4.13;1.20;;;;;;;14.11;65.32;95583.63;4955182;28;20038;-83
2021/10/21 04:22:22;;;;;;;4.47;1.08;;;;;;;14.27;64.16;95584.69;4954869;28;20045;-82
2021/10/21 04:24:48;;;;;;;4.57;0.90;;;;;;;14.19;63.21;95588.09;4971215;28;20061;-82
2021/10/21 04:27:13;;;;;;;5.80;0.80;;;;;;;14.24;64.46;95578.25;4970980;28;20034;-82
2021/10/21 04:29:38;;;;;;;5.65;1.08;;;;;;;14.29;64.44;95590.41;4969211;28;20038;-82
2021/10/21 04:32:04;;;;;;;5.28;0.60;;;;;;;14.41;64.32;95602.88;4990401;28;20041;-83
2021/10/21 04:34:30;;;;;;;5.80;1.13;;;;;;;14.15;64.70;95584.53;4974347;28;20080;-82
2021/10/21 04:36:55;;;;;;;7.85;1.33;;;;;;;13.86;65.06;95567.53;4990374;28;20030;-82
2021/10/21 04:39:20;;;;;;;7.68;1.13;;;;;;;13.81;65.00;95606.94;5006517;28;20034;-82
2021/10/21 04:41:46;;;;;;;5.85;0.90;;;;;;;13.81;64.99;95586.00;4990368;28;20514;-80
2021/10/21 04:44:11;;;;;;;5.65;1.30;;;;;;;13.99;65.63;95632.06;4974445;28;20084;-81
2021/10/21 04:46:36;;;;;;;5.63;1.10;;;;;;;13.76;64.84;95612.28;4973990;28;20018;-80
2021/10/21 04:49:02;;;;;;;7.88;1.42;;;;;;;14.02;65.64;95628.09;4973649;28;20113;-81
2021/10/21 04:51:28;;;;;;;10.65;1.33;;;;;;;13.81;64.59;95633.09;4990296;28;20038;-82
2021/10/21 04:53:53;;;;;;;6.40;1.10;;;;;;;13.72;63.61;95635.66;4990367;28;20034;-83
2021/10/21 04:56:19;;;;;;;6.03;0.88;;;;;;;13.53;64.80;95627.28;4990085;28;20046;-81
2021/10/21 04:58:44;;;;;;;5.93;0.95;;;;;;;13.96;64.23;95643.13;4989846;28;20030;-81
2021/10/21 05:01:10;;;;;;;8.60;1.35;;;;;;;14.14;61.97;95669.38;4969739;28;20037;-81
2021/10/21 05:03:35;;;;;;;5.43;1.00;;;;;;;14.08;63.45;95657.50;4937867;28;20031;-80
2021/10/21 05:06:00;;;;;;;7.78;1.25;;;;;;;13.79;63.91;95645.69;4988298;28;20234;-80
2021/10/21 05:08:26;;;;;;;8.65;0.93;;;;;;;14.17;62.26;95640.75;4985631;28;20092;-81
2021/10/21 05:10:51;;;;;;;7.10;1.13;;;;;;;14.00;62.69;95646.72;4970082;28;20043;-81
2021/10/21 05:13:16;;;;;;;6.63;1.33;;;;;;;13.84;63.13;95642.94;4985477;28;20133;-81
2021/10/21 05:15:42;;;;;;;6.05;0.90;;;;;;;14.00;62.20;95646.72;4988217;28;20034;-81
2021/10/21 05:18:08;;;;;;;8.20;1.33;;;;;;;14.20;62.06;95660.28;4988643;28;20459;-80
2021/10/21 05:20:34;;;;;;;3.33;0.73;;;;;;;14.01;61.03;95650.09;4988716;28;20495;-80
2021/10/21 05:23:00;;;;;;;5.60;1.20;;;;;;;14.13;61.34;95686.16;4973226;28;20068;-81
2021/10/21 05:25:25;;;;;;;6.57;0.70;;;;;;;13.91;62.83;95658.97;4992793;28;20073;-81
2021/10/21 05:27:51;;;;;;;7.70;1.02;;;;;;;13.78;62.08;95638.94;4960108;28;20042;-81
2021/10/21 05:30:16;;;;;;;6.57;0.88;;;;;;;14.08;60.97;95657.50;4976208;28;20026;-81
2021/10/21 05:32:42;;;;;;;4.65;1.25;;;;;;;13.99;60.75;95671.31;4973773;28;20037;-83
2021/10/21 05:35:08;;;;;;;7.72;0.95;;;;;;;13.81;61.02;95675.72;4992903;28;20105;-81
2021/10/21 05:37:33;;;;;;;5.47;0.50;;;;;;;14.05;61.01;95691.06;4977158;28;20393;-81
2021/10/21 05:39:59;;;;;;;4.15;0.45;;;;;;;13.73;61.62;95684.31;4993930;28;20392;-81
2021/10/21 05:42:24;;;;;;;6.50;1.42;;;;;;;14.03;60.91;95689.81;4977041;28;20555;-81
2021/10/21 05:44:50;;;;;;;4.18;0.52;;;;;;;13.56;61.97;95682.38;4977219;28;20026;-82
2021/10/21 05:47:16;;;;;;;6.78;0.82;;;;;;;13.63;61.41;95687.94;4976559;28;20083;-82
2021/10/21 05:49:42;;;;;;;10.15;1.33;;;;;;;13.86;62.72;95680.84;4992946;28;20033;-81
2021/10/21 05:52:08;;;;;;;3.50;0.43;;;;;;;13.80;63.21;95717.88;5009751;28;20052;-83
2021/10/21 05:54:33;;;;;;;1.80;0.50;;;;;;;13.62;65.42;95715.19;5010116;28;20041;-81
2021/10/21 05:56:59;;;;;;;5.43;0.70;;;;;;;13.29;65.88;95712.78;5010360;28;20064;-81
2021/10/21 05:59:24;;;;;;;2.75;0.60;;;;;;;13.29;65.94;95731.06;5010758;28;20038;-82
2021/10/21 06:01:49;;;;;;;4.00;0.70;;;;;;;13.07;66.59;95757.19;4982937;28;20033;-83
2021/10/21 06:04:15;;;;;;;5.13;0.82;;;;;;;12.81;68.54;95723.78;4993525;28;20034;-81
2021/10/21 06:06:40;;;;;;;5.28;1.15;;;;;;;12.89;67.20;95756.28;4993403;28;20423;-82
2021/10/21 06:09:06;;;;;;;3.58;0.45;;;;;;;13.12;67.34;95759.69;4993361;28;20448;-81
2021/10/21 06:11:35;;;;;;;2.28;0.50;;;;;;;13.00;66.95;95756.84;4977170;28;20033;-82
2021/10/21 06:14:02;;;;;;;2.22;0.65;;;;;;;12.91;67.97;95760.13;4994062;28;20037;-80
2021/10/21 06:16:28;;;;;;;4.28;0.40;;;;;;;12.78;68.07;95754.94;4961113;28;20459;-80
2021/10/21 06:18:54;;;;;;;3.85;0.40;;;;;;;13.05;67.10;95764.56;4976796;28;20083;-81
2021/10/21 06:21:23;;;;;;;4.22;0.57;;;;;;;12.97;67.53;95778.31;4976836;28;20030;-82
2021/10/21 06:23:50;;;;;;;4.43;0.63;;;;;;;12.70;68.44;95798.19;4977676;28;20026;-80
2021/10/21 06:26:17;;;;;;;1.95;0.52;;;;;;;12.67;69.07;95790.94;4960767;28;20691;-81
2021/10/21 06:28:44;;;;;;;1.48;0.35;;;;;;;12.73;69.12;95810.66;4990046;28;20034;-81
2021/10/21 06:31:13;;;;;;;2.72;0.95;;;;;;;12.40;69.41;95823.03;4990972;28;20025;-82
2021/10/21 06:33:39;;;;;;;2.50;0.63;;;;;;;12.50;68.47;95849.72;4961052;28;20026;-81
2021/10/21 06:36:04;;;;;;;4.15;0.40;;;;;;;12.41;69.82;95858.53;4975754;28;20026;-81
2021/10/21 06:38:30;;;;;;;5.13;0.50;;;;;;;12.58;69.19;95887.47;4976740;28;20026;-82
2021/10/21 06:40:55;;;;;;;4.03;0.63;;;;;;;12.29;70.22;95880.63;4992870;28;20033;-81
2021/10/21 06:43:21;;;;;;;0.70;0.20;;;;;;;12.46;69.94;95900.97;4976528;28;20873;-81
2021/10/21 06:45:46;;;;;;;2.00;0.30;;;;;;;12.42;69.85;95901.81;4992991;28;20136;-80
2021/10/21 06:48:11;;;;;;;1.50;0.22;;;;;;;12.35;70.02;95917.84;4992344;28;20442;-81
2021/10/21 06:50:37;;;;;;;1.27;0.30;;;;;;;12.60;69.28;95955.06;4992667;28;20091;-82
2021/10/21 06:53:02;;;;;;;0.55;0.20;;;;;;;12.54;69.06;95944.69;4992877;28;20057;-81
2021/10/21 06:55:27;;;;;;;2.00;0.30;;;;;;;12.42;69.52;95975.69;4992755;28;20105;-81
2021/10/21 06:57:58;;;;;;;2.10;0.20;;;;;;;12.30;69.35;95985.81;4975990;28;20491;-81
2021/10/21 07:00:25;;;;;;;2.17;0.30;;;;;;;12.28;68.87;96000.97;4961349;28;20034;-82
2021/10/21 07:02:51;;;;;;;1.08;0.20;;;;;;;12.59;68.67;96034.44;4989714;28;20034;-81
2021/10/21 07:05:21;;;;;;;3.00;0.40;;;;;;;12.41;68.90;96034.19;4993008;28;20050;-82
2021/10/21 07:07:47;;;;;;;1.75;0.20;;;;;;;12.39;69.36;96051.97;5008482;28;20083;-82
2021/10/21 07:10:12;;;;;;;1.25;0.30;;;;;;;12.39;69.29;96059.81;4985580;28;20084;-80
2021/10/21 07:12:39;;;;;;;0.93;0.28;;;;;;;12.58;68.92;96079.88;4976131;28;20484;-80
2021/10/21 07:15:07;;;;;;;1.80;0.22;;;;;;;12.62;68.96;96083.50;4991193;28;20072;-81
2021/10/21 07:17:33;;;;;;;1.83;0.70;;;;;;;12.54;70.14;96096.13;5008224;28;20030;-81
2021/10/21 07:19:58;;;;;;;0.60;0.40;;;;;;;12.40;69.98;96110.94;4987857;28;20027;-81
2021/10/21 07:22:24;;;;;;;1.23;0.20;;;;;;;12.58;70.08;96138.13;4974393;28;20085;-81
2021/10/21 07:24:49;;;;;;;0.20;0.20;;;;;;;12.60;69.74;96141.22;5005729;28;20029;-83
2021/10/21 07:27:17;;;;;;;0.30;0.20;;;;;;;12.47;69.54;96153.13;4991687;28;20723;-82
2021/10/21 07:29:42;;;;;;;1.42;0.20;;;;;;;12.52;68.43;96154.91;4983622;28;20719;-81
2021/10/21 07:32:08;;;;;;;1.95;0.22;;;;;;;12.49;68.70;96171.94;4975776;28;20112;-82
2021/10/21 07:34:33;;;;;;;0.50;0.30;;;;;;;12.38;69.20;96180.94;5008476;28;20026;-82
2021/10/21 07:36:59;;;;;;;0.22;0.20;;;;;;;12.38;69.92;96204.44;4984675;28;20034;-82
2021/10/21 07:39:24;;;;;;;2.38;0.20;;;;;;;12.25;70.43;96182.41;4965700;28;20565;-80
2021/10/21 07:41:51;;;;;;;0.40;0.20;;;;;;;12.41;69.43;96206.47;4985741;28;20030;-81
2021/10/21 07:44:17;;;;;;;1.33;0.17;;;;;;;12.45;69.37;96236.19;4980527;28;20091;-83
2021/10/21 07:46:46;;;;;;;0.77;0.20;;;;;;;12.66;68.26;96244.56;4983037;28;20191;-81
2021/10/21 07:49:12;;;;;;;0.73;0.50;;;;;;;12.53;68.58;96248.63;4980855;28;20023;-82
2021/10/21 07:51:38;;;;;;;1.23;0.15;;;;;;;12.80;68.74;96281.22;4997078;28;20037;-81
2021/10/21 07:54:04;;;;;;;1.70;0.50;;;;;;;12.54;69.06;96268.47;4982517;28;20471;-81
2021/10/21 07:56:29;;;;;;;0.73;0.10;;;;;;;12.80;67.41;96269.97;4981203;28;20026;-80
2021/10/21 07:58:55;;;;;;;1.73;0.20;;;;;;;12.81;66.70;96280.16;4974606;28;20036;-83
2021/10/21 08:01:21;;;;;;;0.50;0.20;;;;;;;12.60;66.79;96318.03;4983086;28;20034;-81
2021/10/21 08:03:46;;;;;;;0.93;0.50;;;;;;;12.91;66.85;96329.66;4979543;28;20496;-81
2021/10/21 08:06:12;;;;;;;1.25;0.20;;;;;;;13.05;67.25;96335.00;4997414;28;20040;-82
2021/10/21 08:08:38;;;;;;;0.68;0.22;;;;;;;12.83;65.54;96332.13;4951771;28;20054;-82
2021/10/21 08:11:03;;;;;;;0.45;0.32;;;;;;;12.76;66.51;96363.03;4987129;28;20125;-81
2021/10/21 08:13:29;;;;;;;1.45;0.20;;;;;;;12.90;67.18;96377.78;4971049;28;20499;-82
2021/10/21 08:15:56;;;;;;;0.30;0.20;;;;;;;12.85;66.42;96379.63;4970880;28;20030;-82
2021/10/21 08:18:22;;;;;;;0.30;0.30;;;;;;;12.65;66.67;96404.94;4970700;28;20173;-81
2021/10/21 08:20:47;;;;;;;0.30;0.30;;;;;;;12.66;66.64;96426.59;4977460;28;20042;-83
2021/10/21 08:23:13;;;;;;;1.13;0.20;;;;;;;12.85;65.15;96416.22;4999183;28;20030;-82
2021/10/21 08:25:38;;;;;;;1.20;0.30;;;;;;;12.81;65.97;96421.22;4987316;28;20030;-82
2021/10/21 08:28:04;;;;;;;0.55;0.20;;;;;;;12.41;63.96;96427.63;4970281;28;20085;-80
2021/10/21 08:30:32;;;;;;;2.00;0.60;;;;;;;12.58;65.90;96424.56;4980400;28;20037;-80
2021/10/21 08:32:57;;;;;;;1.33;0.30;;;;;;;12.33;64.95;96432.34;4958524;28;20084;-82
2021/10/21 08:35:27;;;;;;;1.77;0.50;;;;;;;12.65;64.93;96456.38;4990601;28;20022;-83
2021/10/21 08:37:53;;;;;;;0.93;0.30;;;;;;;12.90;63.38;96456.16;4974274;28;20492;-83
2021/10/21 08:40:18;;;;;;;0.68;0.45;;;;;;;12.92;64.11;96451.44;4974208;28;20125;-80
2021/10/21 08:42:45;;;;;;;1.65;0.30;;;;;;;12.53;64.11;96430.63;4974434;28;20038;-82
2021/10/21 08:45:11;;;;;;;1.95;0.50;;;;;;;12.85;62.97;96450.97;4973930;28;20034;-83
2021/10/21 08:47:41;;;;;;;0.95;0.47;;;;;;;13.04;63.10;96468.53;4990140;28;20030;-82
2021/10/21 08:50:07;;;;;;;2.47;0.93;;;;;;;13.19;61.78;96480.69;4974312;28;20542;-82
2021/10/21 08:52:32;;;;;;;1.15;0.30;;;;;;;13.27;60.75;96483.47;4974342;28;20068;-81
2021/10/21 08:54:58;;;;;;;2.05;0.82;;;;;;;13.13;60.39;96484.41;4958229;28;20061;-82
2021/10/21 08:57:25;;;;;;;0.65;0.55;;;;;;;13.26;61.42;96487.16;4974000;28;20403;-82
2021/10/21 08:59:50;;;;;;;2.97;0.70;;;;;;;13.23;60.76;96492.13;4977153;28;20048;-83
2021/10/21 09:02:20;;;;;;;1.58;0.80;;;;;;;13.55;59.23;96504.63;4965406;28;20052;-82
2021/10/21 09:10:11;;;;;;;2.45;0.40;;;;;;;13.26;60.20;96486.34;4977327;28;20038;-80
2021/10/21 09:12:47;;;;;;;3.40;0.60;;;;;;;13.46;59.47;96490.63;4942321;28;20061;-81
2021/10/21 09:15:16;;;;;;;2.13;1.05;;;;;;;13.62;57.79;96496.44;4944435;28;20862;-81
2021/10/21 09:17:43;;;;;;;4.05;1.02;;;;;;;13.66;57.94;96510.53;4977442;28;20058;-82
2021/10/21 09:20:25;;;;;;;2.00;0.50;;;;;;;13.34;60.42;96508.53;4993958;28;20513;-82
2021/10/21 09:22:56;;;;;;;2.20;0.60;;;;;;;13.44;60.19;96513.66;4993759;28;20036;-81
2021/10/21 09:25:29;;;;;;;2.10;0.43;;;;;;;13.46;59.72;96514.91;4993716;28;20038;-81
2021/10/21 09:27:58;;;;;;;1.90;0.52;;;;;;;13.58;59.00;96524.22;4993296;28;20022;-81
2021/10/21 09:30:33;;;;;;;3.78;0.80;;;;;;;13.73;59.52;96531.13;4974132;28;20026;-83
2021/10/21 09:33:03;;;;;;;3.90;0.45;;;;;;;13.70;58.93;96547.38;4979612;28;20041;-81
2021/10/21 09:35:29;;;;;;;1.70;0.73;;;;;;;13.71;58.33;96541.06;4982815;28;20407;-83
2021/10/21 09:37:55;;;;;;;3.90;0.75;;;;;;;13.86;57.74;96548.72;4976515;28;20029;-82
2021/10/21 09:40:26;;;;;;;1.92;0.52;;;;;;;13.70;60.20;96549.97;4993418;28;20049;-81
2021/10/21 09:43:05;;;;;;;3.10;0.68;;;;;;;13.76;60.06;96557.50;4993265;28;20048;-82
2021/10/21 09:45:35;;;;;;;4.05;0.45;;;;;;;13.70;58.75;96573.53;4993646;28;20622;-82
2021/10/21 09:48:03;;;;;;;4.07;0.73;;;;;;;13.91;60.08;96574.84;4992318;28;20416;-82
2021/10/21 09:50:29;;;;;;;3.28;0.60;;;;;;;14.04;61.19;96583.84;5010765;28;20060;-82
2021/10/21 09:53:22;;;;;;;4.85;0.90;;;;;;;13.82;59.89;96587.75;4993170;28;20111;-81
2021/10/21 09:56:10;;;;;;;1.42;0.60;;;;;;;13.55;60.92;96587.53;4993465;28;20108;-81
2021/10/21 09:58:39;;;;;;;4.10;0.70;;;;;;;13.78;60.76;96593.84;4957247;28;20026;-81
2021/10/21 10:01:06;;;;;;;2.60;0.47;;;;;;;13.89;59.60;96597.91;4956941;28;20030;-82
2021/10/21 10:03:32;;;;;;;3.42;0.40;;;;;;;13.99;61.36;96604.84;4980353;28;20117;-81
2021/10/21 10:05:58;;;;;;;2.42;0.52;;;;;;;13.82;59.61;96598.22;4975968;28;20112;-81
2021/10/21 10:08:24;;;;;;;2.88;0.60;;;;;;;13.89;60.71;96605.75;5000347;28;20459;-81
2021/10/21 10:10:52;;;;;;;5.80;0.75;;;;;;;14.01;59.58;96605.34;4973757;28;20526;-82
2021/10/21 10:13:18;;;;;;;4.43;0.50;;;;;;;13.82;61.00;96592.22;4992358;28;20056;-82
2021/10/21 10:15:45;;;;;;;2.30;0.70;;;;;;;13.92;59.33;96602.56;4989244;28;20038;-81
2021/10/21 10:18:28;;;;;;;1.83;0.80;;;;;;;13.56;61.52;96610.81;4976342;28;20026;-81
2021/10/21 10:21:22;;;;;;;3.28;0.80;;;;;;;13.34;62.70;96620.97;4988615;28;20088;-82
2021/10/21 10:23:51;;;;;;;7.90;1.75;;;;;;;13.79;61.30;96630.19;4989010;28;20038;-81
2021/10/21 10:26:41;;;;;;;2.90;0.70;;;;;;;13.51;61.51;96612.69;4956903;28;20099;-82
2021/10/21 10:29:07;;;;;;;3.00;0.52;;;;;;;13.67;59.62;96607.03;4989535;28;20041;-82
2021/10/21 10:31:43;;;;;;;6.28;1.20;;;;;;;13.71;60.52;96611.69;4968930;28;20502;-81
2021/10/21 10:34:09;;;;;;;4.00;0.85;;;;;;;14.12;60.45;96606.00;4989027;28;20034;-81
2021/10/21 10:36:36;;;;;;;5.80;1.23;;;;;;;14.12;60.31;96609.41;4972858;28;20038;-82
2021/10/21 10:39:07;;;;;;;2.50;0.80;;;;;;;14.65;59.14;96612.94;4973065;28;20504;-81
2021/10/21 10:41:41;;;;;;;3.45;0.90;;;;;;;14.72;58.62;96606.28;4990640;28;20062;-81
2021/10/21 10:44:08;;;;;;;2.00;0.45;;;;;;;14.64;57.73;96612.16;4990236;28;20050;-82
2021/10/21 10:46:51;;;;;;;3.95;0.65;;;;;;;14.60;58.24;96600.72;4967882;28;20030;-81
2021/10/21 10:49:52;;;;;;;2.88;0.73;;;;;;;14.19;58.54;96607.22;4960183;28;20029;-80
2021/10/21 10:52:18;;;;;;;2.92;0.60;;;;;;;14.50;57.82;96595.56;4910951;29;20040;-81
2021/10/21 10:54:43;;;;;;;3.10;0.52;;;;;;;14.54;58.23;96597.31;4879126;29;20051;-80
2021/10/21 10:57:34;;;;;;;3.58;0.80;;;;;;;14.23;57.82;96607.44;4878703;29;20040;-81
2021/10/21 11:00:00;;;;;;;3.53;0.52;;;;;;;14.66;57.18;96615.28;4910356;29;20122;-81
2021/10/21 11:02:26;;;;;;;2.22;0.57;;;;;;;14.35;57.25;96601.78;4891957;29;20044;-81
2021/10/21 11:04:54;;;;;;;4.72;1.33;;;;;;;14.09;58.32;96606.59;4891894;29;20048;-80
2021/10/21 11:07:47;;;;;;;4.97;1.05;;;;;;;14.26;58.63;96609.50;4890928;29;20040;-81
2021/10/21 11:10:18;;;;;;;1.98;1.05;;;;;;;14.47;58.64;96594.28;4896795;29;20906;-81
2021/10/21 11:12:48;;;;;;;3.50;1.10;;;;;;;14.71;57.07;96599.47;4910021;29;20123;-81
2021/10/21 11:15:41;;;;;;;3.38;0.98;;;;;;;14.54;58.12;96594.72;4898635;29;20379;-81
2021/10/21 11:18:07;;;;;;;5.45;0.75;;;;;;;14.69;56.33;96600.84;4873814;29;20586;-80
2021/10/21 11:20:32;;;;;;;2.60;0.90;;;;;;;14.65;57.37;96602.44;4909165;29;20119;-81
2021/10/21 11:22:58;;;;;;;4.38;1.30;;;;;;;15.30;56.21;96610.34;4909614;29;20084;-80
2021/10/21 11:25:25;;;;;;;4.82;1.00;;;;;;;16.08;54.51;96589.50;4919091;28;20395;-79
2021/10/21 11:27:52;;;;;;;2.17;0.73;;;;;;;16.50;51.85;96594.66;4955866;28;20026;-81
2021/10/21 11:30:29;;;;;;;3.17;0.80;;;;;;;16.16;50.36;96603.81;4956174;28;20089;-82
2021/10/21 11:32:57;;;;;;;4.75;0.98;;;;;;;16.11;53.02;96609.16;4962459;28;20121;-80
2021/10/21 11:35:25;;;;;;;6.32;1.17;;;;;;;16.22;53.56;96593.97;4990329;28;20113;-79
2021/10/21 11:37:56;;;;;;;1.23;0.60;;;;;;;16.05;54.76;96594.56;4991136;28;20037;-80
2021/10/21 11:40:37;;;;;;;4.28;1.23;;;;;;;15.29;54.05;96581.78;5007657;28;20076;-81